This is the latest recevied weather packets stored in our database for station/object WP3OF-3. If no packets are shown the sender has not sent any weather packets the latest 1 day(s).
| Time | Temp. | Humidity | Pressure | Rain* | Wind** | Luminosity | Snow |
|---|---|---|---|---|---|---|---|
| 1778103360 | 26.67° C | 81% | 1019.1 hPa | 0 mm | - | - | - |
| 1778101842 | 26.67° C | 80% | 1018.8 hPa | 0 mm | - | - | - |
| 1778100932 | 27.78° C | 77% | 1018.9 hPa | 0 mm | - | - | - |
| 1778100627 | 27.78° C | 75% | 1018.7 hPa | 0 mm | - | - | - |
| 1778100022 | 27.78° C | 75% | 1018.8 hPa | 0 mm | - | - | - |
| 1778099114 | 27.78° C | 76% | 1018.7 hPa | 0 mm | - | - | - |
| 1778098810 | 27.78° C | 75% | 1018.7 hPa | 0 mm | - | - | - |
| 1778097592 | 27.78° C | 74% | 1018.9 hPa | 0 mm | - | - | - |
| 1778096076 | 28.33° C | 75% | 1018.9 hPa | 0 mm | - | - | - |
| 1778094256 | 29.44° C | 71% | 1018.9 hPa | 0 mm | - | - | - |
| 1778092436 | 30° C | 71% | 1019.2 hPa | 0 mm | - | - | - |
| 1778092134 | 28.89° C | 73% | 1019.4 hPa | 0 mm | - | - | - |
| 1778091831 | 28.33° C | 75% | 1019.4 hPa | 0 mm | - | - | - |
| 1778091226 | 28.33° C | 75% | 1019.4 hPa | 0 mm | - | - | - |
| 1778090923 | 28.89° C | 75% | 1019.4 hPa | 0 mm | - | - | - |
| 1778090013 | 28.89° C | 74% | 1019.7 hPa | 0 mm | - | - | - |
| 1778089407 | 28.89° C | 75% | 1019.9 hPa | 0 mm | - | - | - |
| 1778087589 | 29.44° C | 73% | 1020.2 hPa | 0 mm | - | - | - |
| 1778087287 | 29.44° C | 75% | 1020.5 hPa | 0 mm | - | - | - |
| 1778085164 | 28.89° C | 73% | 1020.9 hPa | 0 mm | - | - | - |
| 1778084860 | 28.89° C | 72% | 1020.9 hPa | 0 mm | - | - | - |
| 1778084255 | 29.44° C | 71% | 1021.1 hPa | 0 mm | - | - | - |
| 1778083650 | 29.44° C | 72% | 1021.1 hPa | 0 mm | - | - | - |
| 1778080702 | 30° C | 64% | 1021.7 hPa | 0 mm | - | - | - |
| 1778080095 | 29.44° C | 64% | 1021.4 hPa | 0 mm | - | - | - |
* Rain latest hour (hover to see other rain measurements)
** Current wind speed in m/s (hover to see current wind gust speed)